createdAt,value
2022-12-03T00:00:54.968Z,99731.34
2022-12-03T00:01:56.690Z,99735.94
2022-12-03T00:02:58.477Z,99742.69
2022-12-03T00:04:00.355Z,99736.94
2022-12-03T00:05:02.138Z,99735.13
2022-12-03T00:06:03.853Z,99744.63
2022-12-03T00:07:05.546Z,99736.91
2022-12-03T00:08:07.220Z,99737.59
2022-12-03T00:09:08.907Z,99739.84
2022-12-03T00:10:11.713Z,99745.78
2022-12-03T00:11:13.385Z,99728.72
2022-12-03T00:12:15.083Z,99739.84
2022-12-03T00:13:16.800Z,99741.50
2022-12-03T00:14:18.485Z,99748.91
2022-12-03T00:15:20.198Z,99741.19
2022-12-03T00:16:21.978Z,99742.66
2022-12-03T00:17:23.734Z,99750.03
2022-12-03T00:18:25.452Z,99751.66
2022-12-03T00:19:27.110Z,99755.28
2022-12-03T00:20:28.790Z,99753.31
2022-12-03T00:21:30.461Z,99754.25
2022-12-03T00:22:32.116Z,99748.00
2022-12-03T00:23:37.201Z,99750.97
2022-12-03T00:24:43.341Z,99750.59
2022-12-03T00:25:45.062Z,99748.97
2022-12-03T00:26:46.742Z,99757.50
2022-12-03T00:27:48.402Z,99754.03
2022-12-03T00:28:50.208Z,99751.09
2022-12-03T00:29:51.869Z,99748.28
2022-12-03T00:30:54.280Z,99754.25
2022-12-03T00:31:56.033Z,99758.69
2022-12-03T00:32:57.683Z,99758.47
2022-12-03T00:33:59.410Z,99762.75
2022-12-03T00:35:01.056Z,99752.72
2022-12-03T00:36:02.741Z,99759.47
2022-12-03T00:37:04.407Z,99759.28
2022-12-03T00:38:06.109Z,99761.75
2022-12-03T00:39:07.769Z,99760.28
2022-12-03T00:40:11.177Z,99758.47
2022-12-03T00:41:13.232Z,99762.75
2022-12-03T00:42:14.920Z,99765.84
2022-12-03T00:43:16.593Z,99766.50
2022-12-03T00:44:18.307Z,99744.06
2022-12-03T00:45:20.043Z,99764.03
2022-12-03T00:46:21.973Z,99756.34
2022-12-03T00:47:23.754Z,99769.13
2022-12-03T00:48:25.436Z,99760.78
2022-12-03T00:49:27.113Z,99764.22
2022-12-03T00:50:28.894Z,99770.81
2022-12-03T00:51:30.682Z,99761.94
2022-12-03T00:52:32.532Z,99769.94
2022-12-03T00:53:34.261Z,99773.72
2022-12-03T00:54:35.916Z,99775.53
2022-12-03T00:55:37.635Z,99773.94
2022-12-03T00:56:39.275Z,99772.75
2022-12-03T00:57:40.939Z,99772.75
2022-12-03T00:58:42.612Z,99772.56
2022-12-03T00:59:44.279Z,99773.06
2022-12-03T01:00:45.957Z,99774.88
2022-12-03T01:01:47.768Z,99775.19
2022-12-03T01:02:49.445Z,99775.03
2022-12-03T01:03:51.110Z,99773.56
2022-12-03T01:04:53.044Z,99776.19
2022-12-03T01:05:55.017Z,99768.66
2022-12-03T01:06:56.742Z,99781.94
2022-12-03T01:07:58.491Z,99769.59
2022-12-03T01:09:00.307Z,99783.59
2022-12-03T01:10:03.701Z,99776.50
2022-12-03T01:11:25.430Z,99777.50
2022-12-03T01:12:27.101Z,99789.50
2022-12-03T01:13:28.794Z,99788.50
2022-12-03T01:14:30.664Z,99783.56
2022-12-03T01:15:32.410Z,99764.34
2022-12-03T01:16:34.626Z,99775.50
2022-12-03T01:17:36.601Z,99794.25
2022-12-03T01:18:38.248Z,99790.63
2022-12-03T01:19:46.545Z,99792.09
2022-12-03T01:20:49.821Z,99788.47
2022-12-03T01:21:52.054Z,99789.94
2022-12-03T01:22:53.921Z,99797.16
2022-12-03T01:23:55.742Z,99793.91
2022-12-03T01:24:57.461Z,99796.72
2022-12-03T01:25:59.090Z,99792.44
2022-12-03T01:27:01.103Z,99795.91
2022-12-03T01:28:02.797Z,99793.44
2022-12-03T01:29:05.095Z,99791.97
2022-12-03T01:30:09.557Z,99790.97
2022-12-03T01:31:29.806Z,99789.31
2022-12-03T01:32:31.532Z,99779.78
2022-12-03T01:33:33.183Z,99791.47
2022-12-03T01:34:34.930Z,99787.34
2022-12-03T01:35:36.581Z,99789.00
2022-12-03T01:36:38.234Z,99788.66
2022-12-03T01:37:39.923Z,99787.84
2022-12-03T01:38:41.568Z,99786.34
2022-12-03T01:39:43.334Z,99799.47
2022-12-03T01:40:45.035Z,99791.09
2022-12-03T01:41:48.903Z,99801.13
2022-12-03T01:42:50.612Z,99800.94
2022-12-03T01:43:53.468Z,99804.06
2022-12-03T01:44:57.710Z,99803.06
2022-12-03T01:45:59.435Z,99801.94
2022-12-03T01:47:04.554Z,99797.50
2022-12-03T01:48:06.515Z,99798.16
2022-12-03T01:49:15.306Z,99807.16
2022-12-03T01:50:33.383Z,99803.25
2022-12-03T01:51:35.055Z,99799.44
2022-12-03T01:52:39.366Z,99803.06
2022-12-03T01:53:41.751Z,99804.06
2022-12-03T01:55:04.830Z,99806.69
2022-12-03T01:56:07.096Z,99806.88
2022-12-03T01:57:22.080Z,99803.56
2022-12-03T01:58:28.556Z,99822.31
2022-12-03T01:59:37.460Z,99815.59
2022-12-03T02:00:39.181Z,99819.19
2022-12-03T02:01:40.886Z,99814.75
2022-12-03T02:02:42.779Z,99807.84
2022-12-03T02:03:46.186Z,99809.00
2022-12-03T02:04:48.361Z,99805.06
2022-12-03T02:05:50.515Z,99809.97
2022-12-03T02:06:52.513Z,99804.22
2022-12-03T02:07:55.231Z,99809.97
2022-12-03T02:08:59.785Z,99809.78
2022-12-03T02:10:03.825Z,99807.97
2022-12-03T02:11:30.034Z,99811.97
2022-12-03T02:12:50.420Z,99812.13
2022-12-03T02:13:55.335Z,99809.34
2022-12-03T02:14:57.153Z,99802.75
2022-12-03T02:15:59.084Z,99812.94
2022-12-03T02:17:00.943Z,99810.50
2022-12-03T02:18:03.131Z,99811.97
2022-12-03T02:19:13.229Z,99816.25
2022-12-03T02:20:15.275Z,99811.78
2022-12-03T02:21:38.520Z,99814.44
2022-12-03T02:23:10.655Z,99813.13
2022-12-03T02:24:21.533Z,99822.81
2022-12-03T02:25:29.346Z,99823.81
2022-12-03T02:26:31.055Z,99826.44
2022-12-03T02:27:32.815Z,99821.34
2022-12-03T02:28:34.607Z,99824.47
2022-12-03T02:29:39.991Z,99831.38
2022-12-03T02:30:41.847Z,99829.41
2022-12-03T02:31:44.171Z,99830.38
2022-12-03T02:32:47.141Z,99823.47
2022-12-03T02:33:48.978Z,99822.00
2022-12-03T02:34:51.932Z,99822.31
2022-12-03T02:35:55.286Z,99818.88
2022-12-03T02:36:58.609Z,99827.38
2022-12-03T02:38:08.331Z,99822.13
2022-12-03T02:39:10.051Z,99820.16
2022-12-03T02:40:17.063Z,99820.97
2022-12-03T02:41:39.422Z,99818.88
2022-12-03T02:42:42.321Z,99818.38
2022-12-03T02:43:44.013Z,99825.28
2022-12-03T02:44:45.682Z,99824.31
2022-12-03T02:45:50.718Z,99821.34
2022-12-03T02:46:52.444Z,99817.28
2022-12-03T02:48:06.832Z,99827.31
2022-12-03T02:49:08.575Z,99827.47
2022-12-03T02:50:13.041Z,99825.22
2022-12-03T02:51:14.761Z,99837.84
2022-12-03T02:52:16.567Z,99832.75
2022-12-03T02:53:23.320Z,99834.09
2022-12-03T02:54:25.024Z,99828.00
2022-12-03T02:55:31.976Z,99823.88
2022-12-03T02:56:38.137Z,99825.56
2022-12-03T02:57:40.657Z,99821.94
2022-12-03T02:58:45.168Z,99820.59
2022-12-03T02:59:46.972Z,99825.03
2022-12-03T03:00:50.101Z,99823.25
2022-12-03T03:01:51.973Z,99817.47
2022-12-03T03:02:53.813Z,99787.94
2022-12-03T03:03:56.593Z,99816.84
2022-12-03T03:04:58.355Z,99821.28
2022-12-03T03:06:02.749Z,99817.38
2022-12-03T03:07:04.675Z,99819.34
2022-12-03T03:08:09.118Z,99819.19
2022-12-03T03:09:10.889Z,99818.69
2022-12-03T03:10:15.315Z,99816.41
2022-12-03T03:11:17.109Z,99810.81
2022-12-03T03:12:18.878Z,99807.69
2022-12-03T03:13:21.275Z,99819.19
2022-12-03T03:14:22.937Z,99817.38
2022-12-03T03:15:25.562Z,99811.31
2022-12-03T03:16:27.452Z,99812.50
2022-12-03T03:17:29.182Z,99815.44
2022-12-03T03:18:31.483Z,99823.50
2022-12-03T03:19:33.343Z,99811.50
2022-12-03T03:20:36.004Z,99819.38
2022-12-03T03:21:37.943Z,99817.56
2022-12-03T03:22:42.009Z,99820.69
2022-12-03T03:23:43.695Z,99827.28
2022-12-03T03:24:45.745Z,99816.25
2022-12-03T03:25:51.889Z,99825.47
2022-12-03T03:26:53.728Z,99816.41
2022-12-03T03:27:55.412Z,99813.31
2022-12-03T03:29:00.301Z,99816.75
2022-12-03T03:30:02.072Z,99817.41
2022-12-03T03:31:05.512Z,99825.31
2022-12-03T03:32:07.289Z,99824.50
2022-12-03T03:33:09.988Z,99826.31
2022-12-03T03:34:12.152Z,99825.16
2022-12-03T03:35:14.830Z,99823.19
2022-12-03T03:36:17.097Z,99823.03
2022-12-03T03:37:19.045Z,99829.56
2022-12-03T03:38:22.697Z,99827.94
2022-12-03T03:39:24.803Z,99836.00
2022-12-03T03:40:27.315Z,99824.50
2022-12-03T03:41:30.100Z,99827.94
2022-12-03T03:42:31.859Z,99827.94
2022-12-03T03:43:35.792Z,99831.41
2022-12-03T03:44:37.801Z,99840.09
2022-12-03T03:46:42.793Z,99835.97
2022-12-03T03:47:45.149Z,99837.63
2022-12-03T03:48:48.663Z,99839.09
2022-12-03T03:49:50.981Z,99847.81
2022-12-03T03:50:53.308Z,99843.38
2022-12-03T03:51:55.661Z,99846.84
2022-12-03T03:52:58.692Z,99838.09
2022-12-03T03:54:01.626Z,99845.66
2022-12-03T03:55:04.475Z,99845.34
2022-12-03T03:56:07.268Z,99840.75
2022-12-03T03:57:08.977Z,99844.88
2022-12-03T03:58:11.239Z,99835.00
2022-12-03T03:59:14.184Z,99840.75
2022-12-03T04:00:16.123Z,99845.69
2022-12-03T04:01:18.523Z,99840.06
2022-12-03T04:02:23.028Z,99842.38
2022-12-03T04:03:24.722Z,99845.81
2022-12-03T04:04:27.505Z,99839.91
2022-12-03T04:05:29.316Z,99833.81
2022-12-03T04:06:30.946Z,99853.06
2022-12-03T04:07:32.631Z,99846.31
2022-12-03T04:08:34.360Z,99848.13
2022-12-03T04:09:36.018Z,99856.69
2022-12-03T04:10:56.557Z,99851.41
2022-12-03T04:12:16.797Z,99857.81
2022-12-03T04:13:18.437Z,99855.50
2022-12-03T04:14:20.148Z,99855.84
2022-12-03T04:15:22.031Z,99855.50
2022-12-03T04:16:23.783Z,99862.06
2022-12-03T04:17:25.593Z,99852.38
2022-12-03T04:18:45.558Z,99844.00
2022-12-03T04:19:47.211Z,99846.47
2022-12-03T04:20:48.861Z,99856.16
2022-12-03T04:22:09.455Z,99853.53
2022-12-03T04:23:11.192Z,99860.09
2022-12-03T04:24:13.166Z,99854.81
2022-12-03T04:25:33.381Z,99860.91
2022-12-03T04:26:54.214Z,99860.59
2022-12-03T04:28:14.721Z,99863.75
2022-12-03T04:29:16.434Z,99856.50
2022-12-03T04:30:18.161Z,99858.31
2022-12-03T04:31:38.794Z,99865.72
2022-12-03T04:32:58.824Z,99869.50
2022-12-03T04:34:19.274Z,99877.06
2022-12-03T04:35:39.387Z,99873.59
2022-12-03T04:36:41.120Z,99881.16
2022-12-03T04:37:42.827Z,99872.47
2022-12-03T04:38:44.480Z,99868.84
2022-12-03T04:39:46.186Z,99869.31
2022-12-03T04:41:04.402Z,99872.94
2022-12-03T04:42:06.663Z,99872.28
2022-12-03T04:43:08.325Z,99870.47
2022-12-03T04:44:28.494Z,99876.38
2022-12-03T04:45:30.232Z,99875.56
2022-12-03T04:46:32.083Z,99860.13
2022-12-03T04:47:38.458Z,99872.91
2022-12-03T04:48:41.595Z,99873.41
2022-12-03T04:49:48.197Z,99868.31
2022-12-03T04:50:49.927Z,99865.19
2022-12-03T04:51:51.671Z,99863.22
2022-12-03T04:52:53.337Z,99860.75
2022-12-03T04:53:55.000Z,99865.69
2022-12-03T04:54:56.937Z,99860.75
2022-12-03T04:55:58.668Z,99867.66
2022-12-03T04:57:00.547Z,99845.81
2022-12-03T04:58:02.213Z,99849.59
2022-12-03T04:59:03.895Z,99866.84
2022-12-03T05:00:06.171Z,99872.59
2022-12-03T05:01:07.897Z,99864.06
2022-12-03T05:02:09.977Z,99868.97
2022-12-03T05:03:11.766Z,99868.00
2022-12-03T05:04:14.795Z,99867.66
2022-12-03T05:05:17.260Z,99868.16
2022-12-03T05:06:18.920Z,99867.66
2022-12-03T05:07:20.564Z,99866.34
2022-12-03T05:08:22.207Z,99871.94
2022-12-03T05:09:23.848Z,99875.56
2022-12-03T05:10:25.743Z,99868.97
2022-12-03T05:11:27.529Z,99868.66
2022-12-03T05:12:29.185Z,99860.13
2022-12-03T05:13:30.847Z,99874.25
2022-12-03T05:14:32.569Z,99875.56
2022-12-03T05:15:34.218Z,99880.50
2022-12-03T05:16:36.453Z,99876.56
2022-12-03T05:17:38.137Z,99883.94
2022-12-03T05:18:39.821Z,99885.59
2022-12-03T05:20:00.184Z,99884.78
2022-12-03T05:21:01.859Z,99890.03
2022-12-03T05:22:03.527Z,99886.78
2022-12-03T05:23:05.199Z,99887.91
2022-12-03T05:24:07.116Z,99882.47
2022-12-03T05:25:09.089Z,99885.09
2022-12-03T05:26:11.316Z,99883.81
2022-12-03T05:27:12.956Z,99902.22
2022-12-03T05:28:14.809Z,99887.25
2022-12-03T05:29:16.525Z,99888.88
2022-12-03T05:30:18.209Z,99884.78
2022-12-03T05:31:19.937Z,99889.22
2022-12-03T05:32:22.180Z,99887.91
2022-12-03T05:33:23.832Z,99893.81
2022-12-03T05:34:25.501Z,99892.16
2022-12-03T05:35:27.951Z,99888.41
2022-12-03T05:36:29.574Z,99901.22
2022-12-03T05:37:31.249Z,99891.84
2022-12-03T05:38:32.960Z,99895.66
2022-12-03T05:39:34.726Z,99900.25
2022-12-03T05:40:36.431Z,99904.00
2022-12-03T05:41:56.696Z,99900.72
2022-12-03T05:42:58.529Z,99897.44
2022-12-03T05:44:00.188Z,99893.66
2022-12-03T05:45:01.879Z,99901.06
2022-12-03T05:46:03.572Z,99898.59
2022-12-03T05:47:05.312Z,99905.34
2022-12-03T05:48:10.291Z,99908.59
2022-12-03T05:49:11.936Z,99907.97
2022-12-03T05:50:13.893Z,99911.75
2022-12-03T05:51:15.591Z,99899.75
2022-12-03T05:52:17.234Z,99902.03
2022-12-03T05:53:18.899Z,99908.13
2022-12-03T05:54:20.602Z,99902.34
2022-12-03T05:55:23.061Z,99911.72
2022-12-03T05:56:24.782Z,99907.94
2022-12-03T05:57:26.422Z,99904.50
2022-12-03T05:58:28.078Z,99907.78
2022-12-03T05:59:29.735Z,99899.25
2022-12-03T06:00:37.672Z,99902.53
2022-12-03T06:01:42.308Z,99907.31
2022-12-03T06:02:44.533Z,99908.78
2022-12-03T06:03:46.429Z,99912.56
2022-12-03T06:04:48.313Z,99913.53
2022-12-03T06:05:49.964Z,99912.06
2022-12-03T06:06:51.626Z,99922.59
2022-12-03T06:07:53.619Z,99923.25
2022-12-03T06:08:55.348Z,99921.44
2022-12-03T06:09:57.001Z,99923.88
2022-12-03T06:10:58.626Z,99930.63
2022-12-03T06:12:00.980Z,99933.75
2022-12-03T06:13:03.425Z,99928.16
2022-12-03T06:14:05.077Z,99932.63
2022-12-03T06:15:07.545Z,99918.97
2022-12-03T06:16:09.282Z,99920.75
2022-12-03T06:17:10.995Z,99929.16
2022-12-03T06:18:12.691Z,99936.22
2022-12-03T06:19:14.337Z,99935.25
2022-12-03T06:20:18.757Z,99934.91
2022-12-03T06:21:20.437Z,99937.34
2022-12-03T06:22:22.105Z,99927.03
2022-12-03T06:23:23.752Z,99933.75
2022-12-03T06:24:25.392Z,99932.75
2022-12-03T06:25:27.076Z,99924.69
2022-12-03T06:26:30.215Z,99930.78
2022-12-03T06:27:31.868Z,99933.56
2022-12-03T06:28:33.532Z,99933.75
2022-12-03T06:29:35.219Z,99939.97
2022-12-03T06:30:36.951Z,99938.69
2022-12-03T06:31:38.637Z,99929.31
2022-12-03T06:32:40.751Z,99942.44
2022-12-03T06:33:42.529Z,99937.03
2022-12-03T06:34:44.220Z,99929.47
2022-12-03T06:35:45.868Z,99943.44
2022-12-03T06:36:47.753Z,99942.78
2022-12-03T06:37:49.482Z,99946.56
2022-12-03T06:38:51.189Z,99952.50
2022-12-03T06:39:52.938Z,99944.09
2022-12-03T06:41:09.718Z,99949.69
2022-12-03T06:42:11.414Z,99952.16
2022-12-03T06:43:13.070Z,99951.50
2022-12-03T06:44:15.064Z,99951.19
2022-12-03T06:45:16.801Z,99946.25
2022-12-03T06:46:18.613Z,99952.81
2022-12-03T06:47:20.500Z,99951.00
2022-12-03T06:48:22.248Z,99947.56
2022-12-03T06:49:23.961Z,99947.41
2022-12-03T06:50:25.643Z,99954.47
2022-12-03T06:51:27.313Z,99951.53
2022-12-03T06:52:28.990Z,99956.78
2022-12-03T06:53:30.680Z,99951.16
2022-12-03T06:54:32.375Z,99953.34
2022-12-03T06:55:34.009Z,99955.94
2022-12-03T06:56:40.379Z,99954.63
2022-12-03T06:57:46.430Z,99950.69
2022-12-03T06:58:48.091Z,99950.34
2022-12-03T06:59:49.785Z,99955.44
2022-12-03T07:00:51.423Z,99948.88
2022-12-03T07:01:53.121Z,99956.28
2022-12-03T07:02:54.847Z,99956.09
2022-12-03T07:03:56.535Z,99951.00
2022-12-03T07:04:58.437Z,99957.44
2022-12-03T07:06:00.427Z,99957.06
2022-12-03T07:07:02.129Z,99953.78
2022-12-03T07:08:04.030Z,99959.75
2022-12-03T07:09:05.825Z,99960.41
2022-12-03T07:10:08.006Z,99954.31
2022-12-03T07:11:29.976Z,99956.44
2022-12-03T07:12:32.904Z,99957.09
2022-12-03T07:13:34.549Z,99963.69
2022-12-03T07:14:36.200Z,99964.34
2022-12-03T07:15:37.843Z,99954.63
2022-12-03T07:16:40.053Z,99957.13
2022-12-03T07:17:41.809Z,99954.50
2022-12-03T07:18:43.456Z,99959.59
2022-12-03T07:19:45.137Z,99962.88
2022-12-03T07:20:46.792Z,99957.25
2022-12-03T07:21:48.726Z,99970.91
2022-12-03T07:22:50.383Z,99959.56
2022-12-03T07:23:52.017Z,99962.03
2022-12-03T07:24:53.905Z,99956.94
2022-12-03T07:25:55.704Z,99962.06
2022-12-03T07:26:57.394Z,99957.78
2022-12-03T07:27:59.065Z,99957.91
2022-12-03T07:29:00.785Z,99965.50
2022-12-03T07:30:02.427Z,99965.16
2022-12-03T07:31:04.133Z,99955.81
2022-12-03T07:32:06.099Z,99960.56
2022-12-03T07:33:07.737Z,99965.00
2022-12-03T07:34:09.436Z,99962.69
2022-12-03T07:35:11.122Z,99971.56
2022-12-03T07:36:12.864Z,99974.03
2022-12-03T07:37:18.656Z,99974.88
2022-12-03T07:38:23.286Z,99974.22
2022-12-03T07:39:24.948Z,99971.25
2022-12-03T07:40:26.581Z,99969.28
2022-12-03T07:41:28.212Z,99969.28
2022-12-03T07:42:29.943Z,99946.25
2022-12-03T07:43:31.709Z,99967.94
2022-12-03T07:44:33.512Z,99969.44
2022-12-03T07:45:35.206Z,99966.13
2022-12-03T07:46:36.939Z,99965.47
2022-12-03T07:47:38.591Z,99962.69
2022-12-03T07:48:40.512Z,99965.47
2022-12-03T07:49:42.157Z,99969.09
2022-12-03T07:50:43.877Z,99965.97
2022-12-03T07:51:54.288Z,99968.75
2022-12-03T07:52:56.192Z,99973.88
2022-12-03T07:53:57.849Z,99966.13
2022-12-03T07:54:59.508Z,99973.88
2022-12-03T07:56:01.138Z,99966.94
2022-12-03T07:57:02.919Z,99971.75
2022-12-03T07:58:04.722Z,99961.34
2022-12-03T07:59:06.404Z,99969.59
2022-12-03T08:00:08.441Z,99963.81
2022-12-03T08:01:10.584Z,99965.97
2022-12-03T08:02:15.625Z,99966.63
2022-12-03T08:03:21.293Z,99965.97
2022-12-03T08:04:22.963Z,99968.59
2022-12-03T08:05:24.643Z,99967.47
2022-12-03T08:06:26.280Z,99971.75
2022-12-03T08:07:28.000Z,99969.09
2022-12-03T08:08:29.663Z,99967.94
2022-12-03T08:09:31.652Z,99965.31
2022-12-03T08:10:33.308Z,99974.69
2022-12-03T08:11:35.018Z,99972.22
2022-12-03T08:12:41.885Z,99961.03
2022-12-03T08:13:43.657Z,99970.44
2022-12-03T08:14:45.398Z,99970.88
2022-12-03T08:15:47.223Z,99964.31
2022-12-03T08:16:48.979Z,99966.28
2022-12-03T08:17:56.872Z,99971.19
2022-12-03T08:18:58.559Z,99974.16
2022-12-03T08:20:00.212Z,99974.66
2022-12-03T08:21:01.901Z,99971.84
2022-12-03T08:22:11.519Z,99973.19
2022-12-03T08:23:16.039Z,99970.22
2022-12-03T08:24:18.938Z,99974.50
2022-12-03T08:25:32.739Z,99976.63
2022-12-03T08:26:34.517Z,99968.56
2022-12-03T08:27:36.172Z,99966.25
2022-12-03T08:28:37.835Z,99965.56
2022-12-03T08:29:39.529Z,99968.38
2022-12-03T08:30:42.955Z,99968.84
2022-12-03T08:31:54.948Z,99969.84
2022-12-03T08:32:59.226Z,99964.41
2022-12-03T08:34:15.745Z,99965.38
2022-12-03T08:35:27.534Z,99973.72
2022-12-03T08:36:33.677Z,99969.09
2022-12-03T08:37:36.281Z,99968.44
2022-12-03T08:38:37.976Z,99967.47
2022-12-03T08:39:45.481Z,99977.63
2022-12-03T08:40:49.421Z,99982.56
2022-12-03T08:42:15.169Z,99981.56
2022-12-03T08:43:16.798Z,99981.41
2022-12-03T08:44:28.225Z,99973.94
2022-12-03T08:45:30.425Z,99980.03
2022-12-03T08:46:32.145Z,99975.25
2022-12-03T08:47:33.822Z,99976.59
2022-12-03T08:48:40.689Z,99972.94
2022-12-03T08:49:51.671Z,99970.31
2022-12-03T08:50:58.787Z,99974.91
2022-12-03T08:52:01.997Z,99981.00
2022-12-03T08:53:15.645Z,99973.59
2022-12-03T08:54:20.223Z,99980.19
2022-12-03T08:55:39.270Z,99971.13
2022-12-03T08:56:41.597Z,99980.34
2022-12-03T08:57:43.929Z,99983.75
2022-12-03T08:58:48.247Z,99970.91
2022-12-03T08:59:54.383Z,99977.50
2022-12-03T09:01:07.235Z,99973.53
2022-12-03T09:02:23.010Z,99966.09
2022-12-03T09:03:24.981Z,99969.03
2022-12-03T09:04:45.804Z,99966.38
2022-12-03T09:05:47.488Z,99963.25
2022-12-03T09:06:49.269Z,99961.59
2022-12-03T09:07:51.034Z,99959.63
2022-12-03T09:08:52.820Z,99961.53
2022-12-03T09:09:54.885Z,99959.88
2022-12-03T09:10:56.941Z,99962.84
2022-12-03T09:11:58.721Z,99966.97
2022-12-03T09:13:00.365Z,99963.19
2022-12-03T09:14:02.089Z,99968.47
2022-12-03T09:15:04.540Z,99966.38
2022-12-03T09:16:06.640Z,99960.09
2022-12-03T09:17:08.523Z,99960.38
2022-12-03T09:18:10.250Z,99962.03
2022-12-03T09:19:11.956Z,99964.34
2022-12-03T09:20:13.633Z,99964.53
2022-12-03T09:21:15.332Z,99933.66
2022-12-03T09:22:17.490Z,99962.91
2022-12-03T09:23:19.155Z,99955.69
2022-12-03T09:24:21.492Z,99960.28
2022-12-03T09:25:23.141Z,99950.38
2022-12-03T09:26:24.846Z,99957.56
2022-12-03T09:27:26.607Z,99958.38
2022-12-03T09:28:28.304Z,99955.28
2022-12-03T09:29:29.967Z,99957.38
2022-12-03T09:30:31.728Z,99957.22
2022-12-03T09:31:34.461Z,99958.31
2022-12-03T09:32:36.251Z,99953.19
2022-12-03T09:33:37.935Z,99951.53
2022-12-03T09:34:39.782Z,99955.66
2022-12-03T09:35:41.423Z,99948.19
2022-12-03T09:36:43.083Z,99948.31
2022-12-03T09:37:44.747Z,99950.59
2022-12-03T09:38:48.261Z,99940.50
2022-12-03T09:39:50.179Z,99941.88
2022-12-03T09:40:52.590Z,99942.31
2022-12-03T09:41:55.576Z,99937.41
2022-12-03T09:43:01.008Z,99943.97
2022-12-03T09:44:04.364Z,99947.59
2022-12-03T09:45:13.155Z,99938.00
2022-12-03T09:46:15.035Z,99934.00
2022-12-03T09:47:17.011Z,99936.53
2022-12-03T09:48:20.153Z,99942.63
2022-12-03T09:49:22.030Z,99949.88
2022-12-03T09:50:26.532Z,99949.31
2022-12-03T09:51:33.566Z,99941.75
2022-12-03T09:52:35.320Z,99937.78
2022-12-03T09:53:41.328Z,99945.13
2022-12-03T09:54:47.329Z,99944.13
2022-12-03T09:55:50.059Z,99938.88
2022-12-03T09:56:53.665Z,99942.31
2022-12-03T09:57:56.904Z,99943.78
2022-12-03T09:58:59.193Z,99947.25
2022-12-03T10:00:01.124Z,99944.78
2022-12-03T10:01:02.829Z,99941.88
2022-12-03T10:02:21.360Z,99933.75
2022-12-03T10:03:30.130Z,99935.06
2022-12-03T10:04:32.041Z,99939.34
2022-12-03T10:05:34.952Z,99941.31
2022-12-03T10:06:40.980Z,99933.91
2022-12-03T10:07:46.289Z,99922.22
2022-12-03T10:08:51.037Z,99941.28
2022-12-03T10:09:53.288Z,99929.91
2022-12-03T10:10:56.780Z,99943.84
2022-12-03T10:11:59.857Z,99931.09
2022-12-03T10:13:02.325Z,99940.97
2022-12-03T10:14:04.969Z,99928.63
2022-12-03T10:15:10.055Z,99932.34
2022-12-03T10:16:15.532Z,99931.19
2022-12-03T10:17:17.585Z,99931.72
2022-12-03T10:18:23.305Z,99929.38
2022-12-03T10:19:29.262Z,99921.44
2022-12-03T10:20:30.912Z,99928.13
2022-12-03T10:21:37.058Z,99927.13
2022-12-03T10:22:38.728Z,99925.94
2022-12-03T10:23:40.983Z,99920.31
2022-12-03T10:24:44.976Z,99923.06
2022-12-03T10:25:55.521Z,99925.50
2022-12-03T10:27:00.002Z,99925.44
2022-12-03T10:28:06.658Z,99912.47
2022-12-03T10:29:19.881Z,99926.41
2022-12-03T10:30:23.469Z,99920.59
2022-12-03T10:31:35.526Z,99919.16
2022-12-03T10:32:43.265Z,99914.88
2022-12-03T10:33:47.362Z,99913.56
2022-12-03T10:34:49.030Z,99910.41
2022-12-03T10:35:50.677Z,99892.72
2022-12-03T10:37:22.610Z,99911.13
2022-12-03T10:38:24.545Z,99914.56
2022-12-03T10:39:26.213Z,99919.47
2022-12-03T10:40:32.308Z,99913.84
2022-12-03T10:41:34.073Z,99919.28
2022-12-03T10:42:38.516Z,99914.34
2022-12-03T10:43:40.166Z,99917.41
2022-12-03T10:44:41.802Z,99923.84
2022-12-03T10:45:48.402Z,99919.13
2022-12-03T10:47:11.686Z,99921.94
2022-12-03T10:48:30.707Z,99918.13
2022-12-03T10:49:32.442Z,99919.31
2022-12-03T10:50:35.518Z,99920.13
2022-12-03T10:51:39.326Z,99907.75
2022-12-03T10:52:41.119Z,99917.94
2022-12-03T10:53:43.097Z,99915.94
2022-12-03T10:54:44.781Z,99911.50
2022-12-03T10:55:48.479Z,99906.53
2022-12-03T10:56:52.575Z,99908.19
2022-12-03T10:57:54.223Z,99906.97
2022-12-03T10:58:56.097Z,99909.09
2022-12-03T10:59:58.321Z,99907.88
2022-12-03T11:01:03.594Z,99904.66
2022-12-03T11:02:18.015Z,99916.13
2022-12-03T11:03:25.311Z,99920.06
2022-12-03T11:04:34.326Z,99913.44
2022-12-03T11:05:35.966Z,99908.78
2022-12-03T11:06:37.673Z,99911.75
2022-12-03T11:07:39.731Z,99918.94
2022-12-03T11:08:44.974Z,99914.06
2022-12-03T11:09:51.213Z,99912.25
2022-12-03T11:11:16.485Z,99917.44
2022-12-03T11:12:19.994Z,99919.25
2022-12-03T11:13:33.528Z,99920.66
2022-12-03T11:14:54.544Z,99913.22
2022-12-03T11:15:57.194Z,99913.38
2022-12-03T11:16:58.889Z,99912.56
2022-12-03T11:18:00.806Z,99905.47
2022-12-03T11:19:03.340Z,99906.13
2022-12-03T11:20:09.156Z,99907.88
2022-12-03T11:21:12.922Z,99910.31
2022-12-03T11:22:14.519Z,99906.03
2022-12-03T11:23:44.841Z,99909.41
2022-12-03T11:24:47.632Z,99908.09
2022-12-03T11:25:50.732Z,99894.28
2022-12-03T11:26:52.448Z,99908.44
2022-12-03T11:28:12.703Z,99904.81
2022-12-03T11:29:14.846Z,99895.78
2022-12-03T11:30:51.701Z,99905.34
2022-12-03T11:31:53.447Z,99905.59
2022-12-03T11:32:55.041Z,99904.81
2022-12-03T11:34:18.506Z,99907.28
2022-12-03T11:35:35.956Z,99906.97
2022-12-03T11:37:12.464Z,99880.44
2022-12-03T11:38:53.496Z,99903.88
2022-12-03T11:39:55.844Z,99917.75
2022-12-03T11:41:14.929Z,99902.44
2022-12-03T11:42:28.644Z,99904.16
2022-12-03T11:43:52.161Z,99909.09
2022-12-03T11:45:05.830Z,99908.78
2022-12-03T11:46:10.319Z,99896.94
2022-12-03T11:47:16.489Z,99904.66
2022-12-03T11:48:18.892Z,99910.06
2022-12-03T11:49:45.232Z,99906.91
2022-12-03T11:50:52.775Z,99908.69
2022-12-03T11:51:54.687Z,99909.84
2022-12-03T11:53:18.926Z,99901.78
2022-12-03T11:54:23.375Z,99910.66
2022-12-03T11:55:35.823Z,99912.75
2022-12-03T11:56:45.034Z,99909.63
2022-12-03T11:57:46.730Z,99895.44
2022-12-03T11:58:48.663Z,99892.91
2022-12-03T12:00:24.828Z,99910.84
2022-12-03T12:01:39.242Z,99906.72
2022-12-03T12:02:41.209Z,99899.16
2022-12-03T12:03:50.372Z,99901.28
2022-12-03T12:04:52.109Z,99904.63
2022-12-03T12:06:14.392Z,99903.28
2022-12-03T12:07:39.650Z,99905.06
2022-12-03T12:08:56.579Z,99901.94
2022-12-03T12:09:58.545Z,99892.63
2022-12-03T12:11:01.229Z,99898.19
2022-12-03T12:12:19.781Z,99899.13
2022-12-03T12:13:33.386Z,99898.97
2022-12-03T12:14:35.094Z,99900.59
2022-12-03T12:15:39.606Z,99895.13
2022-12-03T12:16:46.087Z,99900.59
2022-12-03T12:17:47.914Z,99891.69
2022-12-03T12:18:55.083Z,99897.59
2022-12-03T12:20:27.033Z,99898.59
2022-12-03T12:21:47.901Z,99893.31
2022-12-03T12:22:50.273Z,99899.13
2022-12-03T12:23:52.213Z,99893.72
2022-12-03T12:24:58.448Z,99899.22
2022-12-03T12:26:07.281Z,99897.41
2022-12-03T12:27:11.930Z,99897.41
2022-12-03T12:28:13.704Z,99893.63
2022-12-03T12:29:15.340Z,99897.28
2022-12-03T12:30:19.905Z,99884.31
2022-12-03T12:31:21.717Z,99902.25
2022-12-03T12:32:35.383Z,99895.22
2022-12-03T12:33:37.073Z,99893.09
2022-12-03T12:34:40.841Z,99896.06
2022-12-03T12:35:42.581Z,99886.56
2022-12-03T12:36:47.192Z,99894.41
2022-12-03T12:38:00.084Z,99887.81
2022-12-03T12:39:07.483Z,99889.13